This is the latest recevied weather packets stored in our database for station/object IK2YOU-3. If no packets are shown the sender has not sent any weather packets the latest 10 day(s).
| Time | Temp. | Humidity | Pressure | Rain* | Wind** | Luminosity | Snow |
|---|---|---|---|---|---|---|---|
| 1777451630 | 21.67° C | 59% | 1014.5 hPa | 0 mm | - | 495 W/m² | - |
| 1777451032 | 20.56° C | 64% | 1014.6 hPa | 0 mm | - | 535 W/m² | - |
| 1777450431 | 20.56° C | 64% | 1014.5 hPa | 0 mm | - | 468 W/m² | - |
| 1777449829 | 20.56° C | 65% | 1014.5 hPa | 0 mm | - | 416 W/m² | - |
| 1777449230 | 20° C | 64% | 1014.4 hPa | 0 mm | - | 364 W/m² | - |
| 1777448757 | 19.44° C | 66% | 1014.4 hPa | 0 mm | - | 318 W/m² | - |
| 1777448158 | 19.44° C | 71% | 1014.3 hPa | 0 mm | - | 294 W/m² | - |
| 1777447429 | 18.89° C | 72% | 1014.4 hPa | 0 mm | - | 273 W/m² | - |
| 1777446835 | 18.89° C | 73% | 1014.3 hPa | 0 mm | - | 226 W/m² | - |
| 1777446230 | 18.33° C | 74% | 1014.3 hPa | 0 mm | - | 216 W/m² | - |
| 1777445630 | 18.33° C | 77% | 1014.3 hPa | 0 mm | - | 195 W/m² | - |
| 1777445158 | 17.22° C | 79% | 1014.3 hPa | 0 mm | - | 172 W/m² | - |
| 1777444430 | 17.22° C | 79% | 1014.3 hPa | 0 mm | - | 113 W/m² | - |
| 1777443829 | 16.67° C | 81% | 1014.3 hPa | 0 mm | - | 116 W/m² | - |
| 1777443356 | 16.67° C | 83% | 1014.1 hPa | 0 mm | - | 95 W/m² | - |
| 1777442630 | 16.67° C | 84% | 1014 hPa | 0 mm | - | 72 W/m² | - |
| 1777442030 | 16.11° C | 84% | 1014 hPa | 0 mm | - | 55 W/m² | - |
| 1777441432 | 16.11° C | 84% | 1013.9 hPa | 0 mm | - | 56 W/m² | - |
| 1777440831 | 15.56° C | 85% | 1013.9 hPa | 0 mm | - | 43 W/m² | - |
| 1777440232 | 15.56° C | 85% | 1013.8 hPa | 0 mm | - | 35 W/m² | - |
| 1777439632 | 15.56° C | 85% | 1013.7 hPa | 0 mm | - | 35 W/m² | - |
| 1777439030 | 15° C | 85% | 1013.7 hPa | 0 mm | - | 28 W/m² | - |
| 1777438430 | 15° C | 84% | 1013.6 hPa | 0 mm | - | 18 W/m² | - |
| 1777437831 | 15° C | 84% | 1013.4 hPa | 0 mm | - | 9 W/m² | - |
| 1777437360 | 15° C | 83% | 1013.4 hPa | 0 mm | - | 3 W/m² | - |
* Rain latest hour (hover to see other rain measurements)
** Current wind speed in m/s (hover to see current wind gust speed)